Time;durP1;ratioP1;P1;durP2;ratioP2;P2;SDS_P1;SDS_P2;PMS_P1;PMS_P2;Temp;Humidity;BMP_temperature;BMP_pressure;BME280_temperature;BME280_humidity;BME280_pressure;Samples;Min_cycle;Max_cycle;Signal;HPM_P1;HPM_P2
2024/01/16 00:02:13;;;;;;;6.40;1.60;;;;;;;-2.90;70.96;99238.38;104770;1260;64915;-60
2024/01/16 00:04:40;;;;;;;5.80;1.50;;;;;;;-2.92;70.82;99237.10;104703;1257;138076;-59
2024/01/16 00:07:07;;;;;;;2.40;1.10;;;;;;;-2.94;70.93;99246.11;105043;1261;61156;-60
2024/01/16 00:09:34;;;;;;;4.50;1.60;;;;;;;-2.94;70.77;99255.52;104658;1260;137499;-59
2024/01/16 00:12:04;;;;;;;7.40;2.40;;;;;;;-2.95;70.99;99258.06;104749;1260;75747;-59
2024/01/16 00:14:34;;;;;;;3.80;1.80;;;;;;;-2.96;70.78;99266.95;108477;1258;137956;-60
2024/01/16 00:17:00;;;;;;;3.30;1.60;;;;;;;-2.99;70.80;99271.41;108825;1256;73571;-60
2024/01/16 00:19:27;;;;;;;4.70;1.90;;;;;;;-3.00;70.63;99275.83;108980;1257;58931;-60
2024/01/16 00:21:54;;;;;;;6.00;1.40;;;;;;;-2.99;70.69;99282.23;108883;1256;137627;-66
2024/01/16 00:24:20;;;;;;;8.50;1.60;;;;;;;-2.97;70.66;99283.03;108902;1256;75793;-67
2024/01/16 00:26:47;;;;;;;3.00;1.60;;;;;;;-2.96;70.42;99289.59;105243;1260;138880;-67
2024/01/16 00:29:14;;;;;;;4.80;2.00;;;;;;;-2.96;70.42;99288.05;104908;1260;71936;-68
2024/01/16 00:31:40;;;;;;;3.70;1.60;;;;;;;-2.96;70.24;99291.14;104783;1257;61355;-67
2024/01/16 00:34:07;;;;;;;2.80;1.30;;;;;;;-2.97;70.26;99293.16;104646;1258;137343;-67
2024/01/16 00:36:34;;;;;;;2.90;1.40;;;;;;;-2.95;70.24;99293.43;104785;1257;74235;-67
2024/01/16 00:39:02;;;;;;;3.30;1.30;;;;;;;-2.95;70.13;99304.73;104744;1259;138437;-59
2024/01/16 00:41:29;;;;;;;4.10;1.70;;;;;;;-3.00;69.84;99311.70;104592;1258;73281;-58
2024/01/16 00:43:55;;;;;;;1.70;1.20;;;;;;;-3.04;69.81;99312.66;104859;1260;61227;-60
2024/01/16 00:46:22;;;;;;;4.50;1.80;;;;;;;-3.05;70.03;99322.38;104677;1257;138310;-60
2024/01/16 00:48:49;;;;;;;5.40;1.40;;;;;;;-3.05;69.92;99326.53;104741;1261;75742;-58
2024/01/16 00:51:15;;;;;;;4.10;1.50;;;;;;;-3.07;69.90;99326.23;104634;1260;137578;-60
2024/01/16 00:53:42;;;;;;;2.20;1.20;;;;;;;-3.10;69.79;99325.04;104944;1260;71926;-60
2024/01/16 00:56:12;;;;;;;2.80;1.40;;;;;;;-3.14;69.54;99330.80;108867;1257;58924;-59
2024/01/16 00:58:39;;;;;;;2.20;1.10;;;;;;;-3.21;69.39;99330.93;108759;1262;137698;-58
2024/01/16 01:01:05;;;;;;;5.30;1.40;;;;;;;-3.31;69.02;99331.06;108948;1257;75264;-60
2024/01/16 01:03:32;;;;;;;4.60;1.20;;;;;;;-3.38;68.95;99334.10;108855;1257;137809;-60
2024/01/16 01:06:00;;;;;;;5.80;1.50;;;;;;;-3.44;68.92;99340.58;108939;1257;73166;-60
2024/01/16 01:08:27;;;;;;;6.30;1.50;;;;;;;-3.48;68.78;99349.61;108743;1258;138281;-60
2024/01/16 01:10:53;;;;;;;5.00;1.50;;;;;;;-3.50;68.73;99350.54;108895;1255;60465;-66
2024/01/16 01:13:20;;;;;;;1.60;1.10;;;;;;;-3.56;68.52;99351.54;108980;1257;76101;-66
2024/01/16 01:15:47;;;;;;;2.70;1.20;;;;;;;-3.62;68.61;99353.41;108841;1256;137545;-66
2024/01/16 01:18:14;;;;;;;4.40;1.30;;;;;;;-3.67;68.64;99355.73;105695;1260;73869;-65
2024/01/16 01:20:40;;;;;;;3.70;1.20;;;;;;;-3.71;68.72;99361.14;104742;1260;138258;-66
2024/01/16 01:23:07;;;;;;;2.90;1.30;;;;;;;-3.73;68.88;99365.86;104852;1262;61582;-68
2024/01/16 01:25:34;;;;;;;2.90;1.40;;;;;;;-3.74;68.81;99371.61;104906;1256;75157;-68
2024/01/16 01:28:00;;;;;;;3.20;1.30;;;;;;;-3.80;68.77;99371.97;104721;1260;137582;-67
2024/01/16 01:30:27;;;;;;;7.00;1.40;;;;;;;-3.84;68.88;99375.27;104999;1261;72703;-67
2024/01/16 01:32:53;;;;;;;3.10;1.30;;;;;;;-3.90;68.97;99375.66;104619;1257;138483;-66
2024/01/16 01:35:20;;;;;;;4.80;1.50;;;;;;;-3.93;69.06;99376.80;104749;1260;61272;-66
2024/01/16 01:37:47;;;;;;;3.10;1.30;;;;;;;-3.96;69.18;99380.60;104623;1257;73515;-67
2024/01/16 01:40:15;;;;;;;5.60;1.40;;;;;;;-3.96;69.21;99388.50;104632;1260;138479;-68
2024/01/16 01:42:42;;;;;;;3.50;1.50;;;;;;;-3.98;69.27;99387.12;104745;1260;73722;-66
2024/01/16 01:45:10;;;;;;;5.00;1.50;;;;;;;-4.05;69.10;99397.34;104688;1257;137807;-59
2024/01/16 01:47:37;;;;;;;2.40;1.30;;;;;;;-4.06;69.30;99397.92;108906;1257;59225;-60
2024/01/16 01:50:06;;;;;;;2.50;1.40;;;;;;;-4.08;69.19;99397.67;108987;1257;75609;-59
2024/01/16 01:52:33;;;;;;;3.90;1.20;;;;;;;-4.13;69.14;99405.62;108732;1257;138121;-59
2024/01/16 01:55:00;;;;;;;2.50;1.30;;;;;;;-4.19;69.03;99410.53;108817;1257;71427;-66
2024/01/16 01:57:27;;;;;;;2.90;1.20;;;;;;;-4.27;69.00;99413.80;108757;1257;138296;-59
2024/01/16 01:59:54;;;;;;;2.80;1.20;;;;;;;-4.35;68.91;99426.35;108852;1257;59444;-59
2024/01/16 02:02:20;;;;;;;4.30;1.20;;;;;;;-4.41;69.00;99426.46;108961;1257;74696;-67
2024/01/16 02:04:47;;;;;;;4.10;1.70;;;;;;;-4.47;68.82;99428.69;108877;1256;139321;-67
2024/01/16 02:07:15;;;;;;;6.90;2.90;;;;;;;-4.55;68.74;99428.36;108965;1255;72312;-67
2024/01/16 02:09:42;;;;;;;9.30;3.60;;;;;;;-4.60;68.65;99434.52;106355;1258;137811;-68
2024/01/16 02:12:09;;;;;;;14.00;5.10;;;;;;;-4.65;68.49;99433.33;104773;1261;61192;-68
2024/01/16 02:14:36;;;;;;;13.10;5.10;;;;;;;-4.69;68.48;99437.40;104753;1261;138033;-67
2024/01/16 02:17:03;;;;;;;12.70;5.70;;;;;;;-4.74;68.34;99448.38;104712;1263;65857;-67
2024/01/16 02:19:29;;;;;;;8.00;4.90;;;;;;;-4.80;68.35;99440.29;104802;1260;73481;-59
2024/01/16 02:21:59;;;;;;;11.00;5.30;;;;;;;-4.85;68.34;99449.98;104695;1256;138010;-59
2024/01/16 02:24:26;;;;;;;6.30;3.70;;;;;;;-4.92;68.45;99458.67;104914;1257;61253;-59
2024/01/16 02:26:53;;;;;;;5.10;2.40;;;;;;;-4.98;68.31;99462.18;104689;1260;138097;-59
2024/01/16 02:29:19;;;;;;;3.70;1.80;;;;;;;-5.03;68.30;99468.19;104847;1260;66365;-59
2024/01/16 02:31:46;;;;;;;6.30;1.70;;;;;;;-5.06;68.31;99479.46;104773;1258;73197;-60
2024/01/16 02:34:13;;;;;;;3.20;1.50;;;;;;;-5.08;68.22;99485.81;108608;1257;137494;-61
2024/01/16 02:36:40;;;;;;;3.00;1.50;;;;;;;-5.11;68.15;99486.69;104779;1260;61166;-66
2024/01/16 02:39:06;;;;;;;4.20;1.60;;;;;;;-5.15;68.27;99493.09;104630;1257;138158;-59
2024/01/16 02:41:33;;;;;;;7.70;2.50;;;;;;;-5.18;68.42;99500.76;104781;1257;65558;-59
2024/01/16 02:44:00;;;;;;;13.40;4.20;;;;;;;-5.20;68.37;99505.59;104867;1255;73000;-59
2024/01/16 02:46:26;;;;;;;10.40;3.70;;;;;;;-5.23;68.52;99514.75;104792;1257;137784;-65
2024/01/16 02:48:53;;;;;;;10.90;3.60;;;;;;;-5.28;68.58;99521.96;104836;1260;61177;-66
2024/01/16 02:51:20;;;;;;;5.30;2.60;;;;;;;-5.33;68.85;99527.96;104711;1256;137813;-65
2024/01/16 02:53:46;;;;;;;4.90;1.90;;;;;;;-5.36;68.96;99533.04;104693;1257;66475;-66
2024/01/16 02:56:13;;;;;;;6.40;1.70;;;;;;;-5.39;69.11;99538.98;104743;1257;73062;-66
2024/01/16 02:58:40;;;;;;;7.40;1.80;;;;;;;-5.42;69.20;99539.97;104654;1260;138244;-67
2024/01/16 03:01:07;;;;;;;3.90;1.80;;;;;;;-5.45;69.22;99542.35;104737;1258;61327;-66
2024/01/16 03:03:34;;;;;;;5.10;1.60;;;;;;;-5.47;69.43;99544.25;104682;1257;138633;-68
2024/01/16 03:06:00;;;;;;;3.60;1.40;;;;;;;-5.51;69.51;99545.55;104754;1260;66921;-67
2024/01/16 03:08:27;;;;;;;5.80;1.90;;;;;;;-5.54;69.52;99547.24;104642;1258;139060;-61
2024/01/16 03:10:54;;;;;;;2.50;1.20;;;;;;;-5.55;69.62;99549.20;105049;1256;61298;-59
2024/01/16 03:13:20;;;;;;;4.70;1.70;;;;;;;-5.57;69.68;99555.70;104914;1260;61124;-60
2024/01/16 03:15:47;;;;;;;4.40;1.60;;;;;;;-5.60;69.77;99557.73;104687;1257;137787;-61
2024/01/16 03:18:14;;;;;;;1.60;1.20;;;;;;;-5.60;69.73;99560.98;104717;1257;65667;-67
2024/01/16 03:20:40;;;;;;;2.70;1.50;;;;;;;-5.61;69.79;99558.66;104720;1260;138745;-65
2024/01/16 03:23:07;;;;;;;5.10;1.90;;;;;;;-5.63;69.93;99563.31;104989;1259;61203;-67
2024/01/16 03:25:38;;;;;;;5.30;1.40;;;;;;;-5.64;69.88;99568.01;104850;1260;61447;-66
2024/01/16 03:28:07;;;;;;;3.50;1.50;;;;;;;-5.69;69.78;99569.09;104815;1257;137534;-67
2024/01/16 03:30:35;;;;;;;5.00;1.70;;;;;;;-5.73;69.84;99568.81;108903;1257;66440;-67
2024/01/16 03:33:02;;;;;;;5.50;1.60;;;;;;;-5.76;69.92;99570.66;108839;1256;138300;-65
2024/01/16 03:35:29;;;;;;;4.00;1.60;;;;;;;-5.79;69.91;99569.92;108984;1257;59306;-68
2024/01/16 03:37:55;;;;;;;5.70;1.40;;;;;;;-5.81;69.89;99572.02;105458;1260;61238;-68
2024/01/16 03:40:22;;;;;;;6.10;1.70;;;;;;;-5.83;69.96;99573.52;104664;1256;138626;-68
2024/01/16 03:42:49;;;;;;;1.60;1.30;;;;;;;-5.88;69.80;99579.56;104824;1259;66788;-67
2024/01/16 03:45:15;;;;;;;1.60;1.20;;;;;;;-5.90;69.88;99581.95;104655;1258;138634;-68
2024/01/16 03:47:42;;;;;;;6.70;1.30;;;;;;;-5.92;69.96;99586.22;104882;1259;61362;-68
2024/01/16 03:50:09;;;;;;;2.70;1.30;;;;;;;-5.95;70.05;99589.80;104805;1257;61249;-60
2024/01/16 03:52:36;;;;;;;2.60;1.40;;;;;;;-5.98;70.10;99590.59;108864;1256;139023;-59
2024/01/16 03:55:03;;;;;;;5.00;2.00;;;;;;;-6.01;70.07;99591.94;108963;1257;65997;-59
2024/01/16 03:57:30;;;;;;;3.50;1.40;;;;;;;-6.00;70.13;99596.96;108867;1257;137898;-59
2024/01/16 03:59:56;;;;;;;4.30;1.30;;;;;;;-6.01;70.25;99600.19;108929;1258;60611;-59
2024/01/16 04:02:23;;;;;;;6.20;1.70;;;;;;;-5.99;70.00;99603.68;108968;1257;59020;-59
2024/01/16 04:04:50;;;;;;;3.10;1.40;;;;;;;-5.99;70.01;99605.58;108863;1257;138291;-59
2024/01/16 04:07:17;;;;;;;2.90;1.20;;;;;;;-5.98;70.01;99607.02;108983;1255;65510;-59
2024/01/16 04:09:43;;;;;;;3.80;1.30;;;;;;;-5.97;70.15;99607.27;108858;1257;138926;-58
2024/01/16 04:12:11;;;;;;;2.10;1.40;;;;;;;-5.95;70.05;99613.70;108896;1255;58967;-59
2024/01/16 04:14:37;;;;;;;4.30;1.80;;;;;;;-5.95;70.12;99617.83;108730;1257;138077;-59
2024/01/16 04:17:04;;;;;;;6.90;1.20;;;;;;;-5.95;69.91;99615.27;109012;1257;73975;-59
2024/01/16 04:19:33;;;;;;;5.00;1.20;;;;;;;-5.93;69.97;99617.45;108962;1257;64073;-59
2024/01/16 04:22:04;;;;;;;5.50;1.90;;;;;;;-5.91;69.89;99624.27;108913;1255;137502;-58
2024/01/16 04:24:31;;;;;;;3.70;1.40;;;;;;;-5.92;69.88;99633.36;108984;1256;59016;-59
2024/01/16 04:26:58;;;;;;;2.90;1.50;;;;;;;-5.94;69.89;99634.60;108732;1258;138042;-60
2024/01/16 04:29:24;;;;;;;5.20;1.40;;;;;;;-5.95;69.78;99632.67;109034;1257;73898;-66
2024/01/16 04:31:51;;;;;;;3.50;1.60;;;;;;;-5.96;69.89;99640.86;108981;1257;64524;-66
2024/01/16 04:34:17;;;;;;;6.00;1.80;;;;;;;-5.97;69.75;99647.04;108836;1257;137619;-66
2024/01/16 04:36:44;;;;;;;6.60;1.90;;;;;;;-5.98;69.89;99649.52;108910;1257;59296;-66
2024/01/16 04:39:11;;;;;;;6.00;1.90;;;;;;;-6.00;69.83;99653.36;108896;1257;138274;-66
2024/01/16 04:41:37;;;;;;;7.70;1.60;;;;;;;-6.01;69.92;99654.08;108941;1257;73816;-66
2024/01/16 04:44:04;;;;;;;3.60;1.60;;;;;;;-6.03;69.74;99658.73;109000;1257;65026;-67
2024/01/16 04:46:30;;;;;;;13.10;3.90;;;;;;;-6.05;69.78;99664.41;108841;1257;137501;-67
2024/01/16 04:48:57;;;;;;;11.60;4.70;;;;;;;-6.07;70.05;99664.48;108971;1255;58929;-67
2024/01/16 04:51:24;;;;;;;5.30;2.00;;;;;;;-6.07;69.97;99665.02;108824;1257;138173;-66
2024/01/16 04:53:50;;;;;;;3.90;1.80;;;;;;;-6.04;69.84;99665.02;108967;1257;74430;-67
2024/01/16 04:56:17;;;;;;;2.40;1.60;;;;;;;-6.03;69.88;99665.42;108924;1255;65392;-68
2024/01/16 04:58:43;;;;;;;2.70;2.00;;;;;;;-6.00;69.89;99668.06;108863;1257;140219;-68
2024/01/16 05:01:10;;;;;;;2.70;1.70;;;;;;;-5.93;69.78;99675.73;108935;1257;59798;-68
2024/01/16 05:03:37;;;;;;;5.30;2.20;;;;;;;-5.88;69.88;99675.75;108905;1256;138097;-68
2024/01/16 05:06:03;;;;;;;5.10;2.40;;;;;;;-5.84;69.64;99679.06;108964;1257;73735;-67
2024/01/16 05:08:30;;;;;;;3.50;1.80;;;;;;;-5.82;69.58;99681.11;108857;1257;137924;-65
2024/01/16 05:10:58;;;;;;;2.40;1.70;;;;;;;-5.77;69.69;99684.19;108990;1256;73301;-66
2024/01/16 05:13:24;;;;;;;2.50;1.80;;;;;;;-5.68;69.80;99685.05;109005;1255;59002;-60
2024/01/16 05:15:51;;;;;;;8.60;2.00;;;;;;;-5.57;69.63;99691.05;106944;1257;142767;-59
2024/01/16 05:18:18;;;;;;;3.20;1.80;;;;;;;-5.51;69.60;99693.72;104792;1258;75521;-60
2024/01/16 05:20:44;;;;;;;3.30;1.70;;;;;;;-5.45;69.46;99698.21;104542;1257;137841;-67
2024/01/16 05:23:11;;;;;;;8.80;3.20;;;;;;;-5.40;69.33;99697.02;104809;1258;73395;-68
2024/01/16 05:25:38;;;;;;;8.00;2.20;;;;;;;-5.38;69.31;99694.15;104861;1261;61367;-67
2024/01/16 05:28:04;;;;;;;2.80;1.70;;;;;;;-5.41;69.19;99693.25;104906;1260;137646;-67
2024/01/16 05:30:32;;;;;;;7.00;2.40;;;;;;;-5.50;68.87;99698.05;104835;1255;73982;-66
2024/01/16 05:33:00;;;;;;;4.60;2.00;;;;;;;-5.60;68.69;99698.92;104653;1257;138344;-66
2024/01/16 05:35:28;;;;;;;8.00;1.90;;;;;;;-5.67;68.80;99703.86;104808;1258;72980;-61
2024/01/16 05:37:55;;;;;;;3.30;1.50;;;;;;;-5.72;68.83;99703.33;104919;1259;61371;-59
2024/01/16 05:40:22;;;;;;;6.50;1.90;;;;;;;-5.74;68.88;99704.57;104759;1260;138442;-64
2024/01/16 05:42:49;;;;;;;2.90;1.40;;;;;;;-5.73;68.88;99706.87;104706;1261;75306;-65
2024/01/16 05:45:17;;;;;;;3.00;1.90;;;;;;;-5.72;68.76;99709.64;104651;1257;138116;-59
2024/01/16 05:47:43;;;;;;;3.80;2.00;;;;;;;-5.74;68.81;99709.67;107629;1257;73827;-65
2024/01/16 05:50:10;;;;;;;6.80;2.20;;;;;;;-5.77;68.56;99710.54;104916;1261;61383;-59
2024/01/16 05:52:37;;;;;;;7.40;1.80;;;;;;;-5.81;68.32;99706.64;104618;1259;137888;-58
2024/01/16 05:55:04;;;;;;;4.60;2.20;;;;;;;-5.85;68.30;99710.45;104940;1255;75548;-60
2024/01/16 05:57:33;;;;;;;6.40;2.50;;;;;;;-5.88;68.44;99717.38;105083;1261;138093;-64
2024/01/16 06:00:03;;;;;;;4.80;2.50;;;;;;;-5.89;68.20;99723.45;104824;1260;71446;-64
2024/01/16 06:02:30;;;;;;;8.20;2.50;;;;;;;-5.91;68.24;99721.96;104787;1256;138199;-63
2024/01/16 06:04:56;;;;;;;7.00;2.10;;;;;;;-5.93;68.20;99725.02;104877;1256;61335;-62
2024/01/16 06:07:23;;;;;;;3.80;2.30;;;;;;;-5.97;68.03;99727.35;104886;1256;75698;-60
2024/01/16 06:09:50;;;;;;;6.10;2.20;;;;;;;-6.01;67.97;99733.55;104651;1261;137833;-59
2024/01/16 06:12:17;;;;;;;5.50;1.90;;;;;;;-6.05;67.92;99739.04;104808;1260;72930;-63
2024/01/16 06:14:44;;;;;;;5.80;1.70;;;;;;;-6.08;68.10;99745.83;104862;1256;138089;-59
2024/01/16 06:17:10;;;;;;;4.60;2.00;;;;;;;-6.11;67.90;99746.17;104904;1260;61268;-65
2024/01/16 06:19:37;;;;;;;7.00;1.70;;;;;;;-6.09;67.99;99750.93;104872;1260;74992;-66
2024/01/16 06:22:04;;;;;;;4.10;1.70;;;;;;;-6.06;67.96;99754.52;104684;1257;137930;-65
2024/01/16 06:24:36;;;;;;;7.00;1.90;;;;;;;-6.03;68.06;99757.16;108894;1257;72299;-65
2024/01/16 06:27:06;;;;;;;2.70;1.70;;;;;;;-6.00;68.05;99763.16;108844;1256;138563;-66
2024/01/16 06:29:33;;;;;;;4.80;1.50;;;;;;;-5.97;68.01;99769.89;108998;1255;61309;-66
2024/01/16 06:31:59;;;;;;;7.40;1.60;;;;;;;-5.90;68.02;99775.13;109000;1258;73660;-66
2024/01/16 06:34:27;;;;;;;3.80;1.60;;;;;;;-5.87;67.82;99778.98;108885;1256;138680;-67
2024/01/16 06:36:54;;;;;;;4.20;2.10;;;;;;;-5.84;67.76;99780.85;108969;1257;73283;-67
2024/01/16 06:39:20;;;;;;;5.90;1.50;;;;;;;-5.85;67.43;99785.77;108723;1257;137791;-66
2024/01/16 06:41:47;;;;;;;4.10;1.80;;;;;;;-5.89;67.26;99789.77;108970;1256;59355;-67
2024/01/16 06:44:14;;;;;;;4.80;2.10;;;;;;;-5.91;67.35;99788.08;108972;1255;74425;-67
2024/01/16 06:46:40;;;;;;;7.20;2.20;;;;;;;-5.90;67.39;99794.60;108859;1260;138355;-67
2024/01/16 06:49:07;;;;;;;5.10;2.40;;;;;;;-5.89;67.34;99798.44;108995;1255;72389;-66
2024/01/16 06:51:34;;;;;;;5.70;2.40;;;;;;;-5.87;67.51;99800.70;108891;1258;138189;-67
2024/01/16 06:54:00;;;;;;;5.20;2.50;;;;;;;-5.83;67.38;99806.06;108874;1256;59212;-67
2024/01/16 06:56:27;;;;;;;10.40;3.00;;;;;;;-5.80;67.31;99805.45;108748;1257;138024;-66
2024/01/16 06:58:54;;;;;;;5.00;2.80;;;;;;;-5.77;67.20;99812.14;108958;1257;66256;-66
2024/01/16 07:01:20;;;;;;;6.00;2.70;;;;;;;-5.73;67.45;99811.25;108968;1256;71846;-66
2024/01/16 07:03:47;;;;;;;5.20;2.80;;;;;;;-5.67;67.40;99820.58;108877;1256;144673;-67
2024/01/16 07:06:14;;;;;;;9.10;3.30;;;;;;;-5.62;67.18;99822.02;109021;1259;58832;-67
2024/01/16 07:08:40;;;;;;;8.60;3.10;;;;;;;-5.55;67.34;99831.88;108891;1257;145816;-66
2024/01/16 07:11:08;;;;;;;9.00;3.80;;;;;;;-5.46;67.30;99839.59;109012;1256;67488;-67
2024/01/16 07:13:35;;;;;;;10.60;2.70;;;;;;;-5.42;67.28;99843.06;105602;1257;71961;-66
2024/01/16 07:16:02;;;;;;;7.50;2.40;;;;;;;-5.45;67.07;99843.08;104853;1259;138218;-66
2024/01/16 07:18:28;;;;;;;6.80;2.60;;;;;;;-5.50;66.98;99848.48;104832;1257;61377;-66
2024/01/16 07:20:55;;;;;;;6.60;3.10;;;;;;;-5.55;66.79;99849.52;104854;1257;138349;-66
2024/01/16 07:23:21;;;;;;;9.30;3.20;;;;;;;-5.59;66.82;99856.75;104678;1264;67626;-67
2024/01/16 07:25:48;;;;;;;6.80;3.20;;;;;;;-5.62;66.76;99858.02;104827;1256;73659;-66
2024/01/16 07:28:15;;;;;;;8.50;3.50;;;;;;;-5.66;67.03;99860.11;104724;1259;138423;-66
2024/01/16 07:30:41;;;;;;;9.90;4.10;;;;;;;-5.69;66.69;99866.61;104865;1260;61164;-60
2024/01/16 07:33:08;;;;;;;13.60;5.40;;;;;;;-5.72;66.81;99870.15;104845;1257;138278;-66
2024/01/16 07:35:35;;;;;;;14.70;6.00;;;;;;;-5.73;66.86;99871.23;104838;1257;65404;-59
2024/01/16 07:38:02;;;;;;;13.90;5.70;;;;;;;-5.74;66.73;99873.24;104787;1261;73294;-66
2024/01/16 07:40:28;;;;;;;11.00;5.40;;;;;;;-5.74;66.92;99878.16;104803;1260;138558;-59
2024/01/16 07:42:55;;;;;;;7.50;3.80;;;;;;;-5.77;66.88;99880.03;104764;1263;61345;-59
2024/01/16 07:45:22;;;;;;;8.80;3.80;;;;;;;-5.74;66.81;99888.11;104800;1261;138171;-67
2024/01/16 07:47:48;;;;;;;8.60;4.40;;;;;;;-5.72;66.96;99889.44;104970;1259;67134;-67
2024/01/16 07:50:15;;;;;;;10.00;4.30;;;;;;;-5.70;67.12;99888.42;104716;1262;73871;-67
2024/01/16 07:52:42;;;;;;;8.30;3.80;;;;;;;-5.68;66.88;99890.42;104744;1259;137939;-67
2024/01/16 07:55:09;;;;;;;10.60;4.60;;;;;;;-5.67;66.81;99887.27;105025;1258;60897;-67
2024/01/16 07:57:35;;;;;;;10.50;4.20;;;;;;;-5.63;66.92;99895.61;104871;1261;138465;-67
2024/01/16 08:00:03;;;;;;;7.60;3.50;;;;;;;-5.60;66.92;99898.37;104875;1260;67406;-67
2024/01/16 08:02:37;;;;;;;8.70;4.00;;;;;;;-5.56;66.74;99903.41;104929;1259;138235;-65
2024/01/16 08:05:04;;;;;;;9.50;4.10;;;;;;;-5.52;66.97;99905.59;104878;1259;61455;-67
2024/01/16 08:07:31;;;;;;;11.10;3.40;;;;;;;-5.50;66.67;99907.36;104831;1255;61133;-66
2024/01/16 08:09:58;;;;;;;11.80;5.30;;;;;;;-5.46;66.84;99917.70;104857;1258;138163;-67
2024/01/16 08:12:24;;;;;;;10.90;4.30;;;;;;;-5.41;66.78;99916.67;105041;1261;66776;-66
2024/01/16 08:14:52;;;;;;;8.80;4.00;;;;;;;-5.38;66.72;99924.44;104724;1258;182284;-67
2024/01/16 08:17:18;;;;;;;6.90;3.60;;;;;;;-5.32;66.64;99924.55;108955;1258;59565;-67
2024/01/16 08:19:45;;;;;;;8.20;3.60;;;;;;;-5.28;66.70;99926.77;109014;1256;60043;-66
2024/01/16 08:22:12;;;;;;;9.90;3.60;;;;;;;-5.23;66.59;99928.46;108904;1257;138778;-66
2024/01/16 08:24:38;;;;;;;11.00;3.80;;;;;;;-5.16;66.46;99941.78;108968;1259;66254;-65
2024/01/16 08:27:05;;;;;;;9.80;4.40;;;;;;;-5.10;66.40;99946.86;108897;1256;138646;-66
2024/01/16 08:29:32;;;;;;;8.80;3.40;;;;;;;-5.03;66.46;99950.82;109040;1255;59110;-66
2024/01/16 08:31:58;;;;;;;8.50;3.30;;;;;;;-4.96;66.39;99951.45;108995;1257;61798;-66
2024/01/16 08:34:25;;;;;;;11.20;4.00;;;;;;;-4.89;66.37;99959.02;108759;1256;138351;-66
2024/01/16 08:36:56;;;;;;;10.30;4.00;;;;;;;-4.82;66.12;99959.34;108995;1257;67056;-66
2024/01/16 08:39:24;;;;;;;14.80;4.80;;;;;;;-4.76;66.09;99961.48;108727;1258;138263;-66
2024/01/16 08:41:51;;;;;;;9.70;4.10;;;;;;;-4.71;66.05;99970.13;109018;1257;59564;-67
2024/01/16 08:44:17;;;;;;;9.90;4.40;;;;;;;-4.66;65.89;99973.38;108896;1255;60153;-67
2024/01/16 08:46:44;;;;;;;10.80;4.10;;;;;;;-4.61;65.86;99980.39;108893;1257;138972;-67
2024/01/16 08:49:11;;;;;;;10.80;4.80;;;;;;;-4.55;65.82;99985.77;109031;1255;66636;-67
2024/01/16 08:51:38;;;;;;;11.20;4.20;;;;;;;-4.49;65.63;99988.77;108737;1257;138213;-67
2024/01/16 08:54:06;;;;;;;7.90;3.90;;;;;;;-4.44;65.51;99993.05;109001;1256;59008;-66
2024/01/16 08:56:32;;;;;;;23.10;8.80;;;;;;;-4.38;65.51;99993.69;108905;1257;138127;-66
2024/01/16 08:58:59;;;;;;;10.00;4.80;;;;;;;-4.33;65.47;99996.84;109019;1257;73182;-67
2024/01/16 09:01:26;;;;;;;9.40;3.80;;;;;;;-4.26;65.31;100001.41;109013;1259;65500;-66
2024/01/16 09:03:52;;;;;;;9.90;5.00;;;;;;;-4.20;65.28;100002.30;108884;1257;137836;-67
2024/01/16 09:06:19;;;;;;;11.20;4.60;;;;;;;-4.15;65.20;100005.63;109001;1257;59049;-68
2024/01/16 09:08:46;;;;;;;7.30;3.60;;;;;;;-4.11;64.91;100007.30;108915;1258;138673;-66
2024/01/16 09:11:12;;;;;;;13.00;5.10;;;;;;;-4.05;64.97;100011.39;106728;1258;75810;-67
2024/01/16 09:13:39;;;;;;;9.70;3.60;;;;;;;-4.02;64.84;100013.91;104979;1261;66971;-66
2024/01/16 09:16:06;;;;;;;9.50;3.60;;;;;;;-3.97;64.80;100014.75;104627;1259;137743;-66
2024/01/16 09:18:32;;;;;;;62.50;20.10;;;;;;;-3.92;64.84;100019.04;104825;1259;61338;-66
2024/01/16 09:20:59;;;;;;;9.50;4.00;;;;;;;-3.88;64.62;100026.70;104665;1259;138637;-67
2024/01/16 09:23:25;;;;;;;8.00;3.80;;;;;;;-3.85;64.57;100026.73;104924;1259;75318;-67
2024/01/16 09:25:52;;;;;;;16.40;5.90;;;;;;;-3.81;64.64;100029.92;104754;1259;64210;-66
2024/01/16 09:28:19;;;;;;;11.80;4.40;;;;;;;-3.78;64.53;100028.45;104629;1259;138448;-66
2024/01/16 09:30:45;;;;;;;15.00;6.00;;;;;;;-3.75;64.37;100034.29;104828;1258;61253;-65
2024/01/16 09:33:13;;;;;;;24.30;8.50;;;;;;;-3.74;64.32;100034.55;104824;1258;138408;-66
2024/01/16 09:35:40;;;;;;;11.90;6.00;;;;;;;-3.72;64.19;100040.17;108873;1258;74635;-66
2024/01/16 09:38:06;;;;;;;8.20;3.50;;;;;;;-3.71;64.18;100043.02;108867;1257;65532;-66
2024/01/16 09:40:33;;;;;;;11.30;4.40;;;;;;;-3.68;64.20;100043.34;108236;1257;138633;-67
2024/01/16 09:43:00;;;;;;;8.00;3.60;;;;;;;-3.64;64.25;100045.67;104577;1261;60429;-68
2024/01/16 09:45:27;;;;;;;4.80;2.90;;;;;;;-3.58;64.07;100047.27;104539;1261;137923;-67
2024/01/16 09:47:54;;;;;;;9.60;3.70;;;;;;;-3.53;63.88;100049.54;104749;1259;74388;-65
2024/01/16 09:50:20;;;;;;;8.70;3.70;;;;;;;-3.46;63.94;100052.05;104710;1257;65043;-66
2024/01/16 09:52:47;;;;;;;8.70;3.20;;;;;;;-3.39;63.79;100053.42;104510;1258;138435;-67
2024/01/16 09:55:14;;;;;;;6.40;2.90;;;;;;;-3.32;63.65;100055.81;104710;1259;61365;-67
2024/01/16 09:57:42;;;;;;;6.20;2.80;;;;;;;-3.21;63.53;100059.41;104567;1259;137769;-60
2024/01/16 10:00:12;;;;;;;7.30;3.40;;;;;;;-3.04;63.74;100063.83;104676;1260;75411;-60
2024/01/16 10:02:42;;;;;;;9.00;3.70;;;;;;;-2.81;63.70;100064.52;105165;1259;138603;-60
2024/01/16 10:05:12;;;;;;;8.40;3.10;;;;;;;-2.59;63.52;100065.32;104918;1258;71571;-61
2024/01/16 10:07:39;;;;;;;10.80;4.20;;;;;;;-2.39;63.58;100066.63;104925;1257;61282;-60
2024/01/16 10:10:06;;;;;;;9.30;3.90;;;;;;;-2.17;63.46;100066.84;108843;1257;139435;-58
2024/01/16 10:12:33;;;;;;;63.30;24.30;;;;;;;-1.93;63.32;100066.30;108840;1258;74523;-58
2024/01/16 10:15:00;;;;;;;139.40;49.70;;;;;;;-1.68;63.41;100066.14;108676;1257;138946;-58
2024/01/16 10:17:40;;;;;;;43.80;18.80;;;;;;;-1.42;63.26;100067.27;108878;1259;72001;-58
2024/01/16 10:20:07;;;;;;;19.00;8.30;;;;;;;-1.07;63.30;100066.64;108875;1258;58894;-60
2024/01/16 10:22:34;;;;;;;24.80;9.50;;;;;;;-0.83;62.91;100067.34;108778;1257;138585;-59
2024/01/16 10:25:04;;;;;;;74.60;25.10;;;;;;;-0.67;62.29;100063.51;108872;1258;73416;-59
2024/01/16 10:27:31;;;;;;;32.70;12.80;;;;;;;-0.51;62.16;100064.05;108867;1258;138291;-59
2024/01/16 10:29:58;;;;;;;16.40;6.00;;;;;;;-0.37;62.03;100067.13;109039;1257;72638;-67
2024/01/16 10:32:31;;;;;;;15.90;8.60;;;;;;;-0.25;61.83;100067.26;109015;1257;59080;-67
2024/01/16 10:35:06;;;;;;;9.40;5.30;;;;;;;-0.13;61.46;100068.81;109005;1257;61372;-67
2024/01/16 10:37:51;;;;;;;10.00;4.00;;;;;;;-0.06;60.98;100077.80;108874;1261;75799;-66
2024/01/16 10:40:19;;;;;;;7.80;3.00;;;;;;;0.00;61.01;100080.41;108882;1257;137709;-67
2024/01/16 10:43:06;;;;;;;5.70;2.40;;;;;;;0.04;60.13;100086.29;109000;1260;72701;-68
2024/01/16 10:45:33;;;;;;;6.10;2.60;;;;;;;0.03;60.01;100087.81;108873;1258;137970;-67
2024/01/16 10:48:07;;;;;;;6.50;2.80;;;;;;;0.10;59.80;100090.45;109072;1257;59055;-67
2024/01/16 10:50:38;;;;;;;5.10;2.90;;;;;;;0.09;59.45;100091.25;108933;1257;137714;-66
2024/01/16 10:53:06;;;;;;;5.60;2.50;;;;;;;0.09;59.26;100097.98;108989;1259;66616;-67
2024/01/16 10:55:41;;;;;;;5.70;2.80;;;;;;;-0.02;58.28;100095.50;108990;1257;71404;-67
2024/01/16 10:58:08;;;;;;;6.00;2.40;;;;;;;-0.11;58.64;100100.66;108742;1259;137639;-67
2024/01/16 11:00:34;;;;;;;4.40;1.90;;;;;;;-0.12;57.98;100103.38;108888;1257;59257;-67
2024/01/16 11:03:06;;;;;;;5.00;2.10;;;;;;;-0.15;57.81;100102.64;108809;1255;137839;-66
2024/01/16 11:05:33;;;;;;;3.20;1.40;;;;;;;-0.28;57.11;100106.73;108872;1255;65473;-68
2024/01/16 11:08:03;;;;;;;2.60;1.90;;;;;;;-0.48;56.69;100107.13;105104;1261;70728;-67
2024/01/16 11:10:31;;;;;;;6.40;2.50;;;;;;;-0.67;57.22;100111.55;108809;1256;138130;-66
2024/01/16 11:13:00;;;;;;;4.80;2.50;;;;;;;-0.74;57.43;100118.34;109008;1257;59397;-67
2024/01/16 11:15:28;;;;;;;4.30;1.70;;;;;;;-0.82;57.19;100119.25;108903;1257;137552;-66
2024/01/16 11:17:55;;;;;;;4.00;2.20;;;;;;;-0.96;57.08;100127.70;109025;1257;63996;-66
2024/01/16 11:20:23;;;;;;;6.40;2.80;;;;;;;-1.08;56.97;100128.71;109039;1255;72371;-67